createdAt,value
2022-07-26T00:00:06.855Z,23.00
2022-07-26T00:02:33.652Z,22.90
2022-07-26T00:05:02.619Z,22.80
2022-07-26T00:07:36.363Z,22.80
2022-07-26T00:10:05.980Z,22.80
2022-07-26T00:12:34.378Z,22.80
2022-07-26T00:15:05.412Z,22.70
2022-07-26T00:17:33.886Z,22.70
2022-07-26T00:20:04.053Z,22.70
2022-07-26T00:22:39.256Z,22.60
2022-07-26T00:25:10.428Z,22.60
2022-07-26T00:27:38.874Z,22.60
2022-07-26T00:30:11.899Z,22.70
2022-07-26T00:32:43.864Z,22.60
2022-07-26T00:35:11.520Z,22.50
2022-07-26T00:37:41.009Z,22.50
2022-07-26T00:40:11.154Z,22.50
2022-07-26T00:42:38.038Z,22.50
2022-07-26T00:45:06.420Z,22.40
2022-07-26T00:47:33.673Z,22.40
2022-07-26T00:50:10.185Z,22.40
2022-07-26T00:52:41.341Z,22.30
2022-07-26T00:55:12.144Z,22.30
2022-07-26T00:57:39.867Z,22.30
2022-07-26T01:00:19.200Z,22.20
2022-07-26T01:02:48.186Z,22.20
2022-07-26T01:05:18.410Z,22.20
2022-07-26T01:07:46.345Z,22.20
2022-07-26T01:10:14.637Z,22.20
2022-07-26T01:12:42.659Z,22.10
2022-07-26T01:15:13.918Z,22.10
2022-07-26T01:17:42.152Z,22.10
2022-07-26T01:20:10.761Z,22.10
2022-07-26T01:22:37.771Z,22.10
2022-07-26T01:25:05.861Z,22.10
2022-07-26T01:27:40.457Z,22.10
2022-07-26T01:30:14.561Z,22.10
2022-07-26T01:32:43.535Z,22.20
2022-07-26T01:35:10.639Z,22.20
2022-07-26T01:37:37.314Z,22.20
2022-07-26T01:40:04.895Z,22.20
2022-07-26T01:42:33.892Z,22.20
2022-07-26T01:45:00.869Z,22.20
2022-07-26T01:47:27.555Z,22.20
2022-07-26T01:49:56.269Z,22.20
2022-07-26T01:52:26.445Z,22.20
2022-07-26T01:54:54.400Z,22.20
2022-07-26T01:57:23.649Z,22.20
2022-07-26T01:59:50.462Z,22.20
2022-07-26T02:02:19.585Z,22.20
2022-07-26T02:05:01.474Z,22.10
2022-07-26T02:07:32.766Z,22.10
2022-07-26T02:10:00.235Z,22.10
2022-07-26T02:12:34.761Z,22.00
2022-07-26T02:15:08.896Z,22.00
2022-07-26T02:17:35.870Z,21.90
2022-07-26T02:20:02.621Z,21.90
2022-07-26T02:22:29.283Z,21.90
2022-07-26T02:25:04.420Z,21.80
2022-07-26T02:27:31.328Z,21.80
2022-07-26T02:30:00.604Z,21.80
2022-07-26T02:32:29.970Z,21.80
2022-07-26T02:34:56.641Z,21.80
2022-07-26T02:37:25.667Z,21.80
2022-07-26T02:39:52.308Z,21.80
2022-07-26T02:42:20.124Z,21.80
2022-07-26T02:44:46.795Z,21.80
2022-07-26T02:47:13.489Z,21.70
2022-07-26T02:49:40.175Z,21.80
2022-07-26T02:52:07.751Z,21.70
2022-07-26T02:54:36.891Z,21.70
2022-07-26T02:57:06.044Z,21.70
2022-07-26T02:59:34.773Z,21.60
2022-07-26T03:02:03.522Z,21.60
2022-07-26T03:04:30.362Z,21.60
2022-07-26T03:06:59.084Z,21.60
2022-07-26T03:09:25.977Z,21.60
2022-07-26T03:12:00.066Z,21.60
2022-07-26T03:14:26.777Z,21.60
2022-07-26T03:16:56.677Z,21.60
2022-07-26T03:19:23.404Z,21.60
2022-07-26T03:21:54.774Z,21.70
2022-07-26T03:24:29.121Z,21.60
2022-07-26T03:26:58.328Z,21.60
2022-07-26T03:29:25.275Z,21.60
2022-07-26T03:31:51.987Z,21.60
2022-07-26T03:34:19.169Z,21.60
2022-07-26T03:36:51.143Z,21.60
2022-07-26T03:39:17.848Z,21.60
2022-07-26T03:41:44.570Z,21.50
2022-07-26T03:44:14.922Z,21.50
2022-07-26T03:46:41.700Z,21.50
2022-07-26T03:49:10.954Z,21.50
2022-07-26T03:51:43.548Z,21.50
2022-07-26T03:54:17.261Z,21.50
2022-07-26T03:56:44.013Z,21.50
2022-07-26T03:59:14.527Z,21.50
2022-07-26T04:01:42.589Z,21.50
2022-07-26T04:04:11.154Z,21.40
2022-07-26T04:06:43.818Z,21.40
2022-07-26T04:09:11.943Z,21.50
2022-07-26T04:11:40.014Z,21.40
2022-07-26T04:14:10.904Z,21.40
2022-07-26T04:16:43.271Z,21.40
2022-07-26T04:19:10.399Z,21.40
2022-07-26T04:21:37.146Z,21.40
2022-07-26T04:24:04.049Z,21.40
2022-07-26T04:26:30.841Z,21.40
2022-07-26T04:28:58.036Z,21.40
2022-07-26T04:31:24.920Z,21.40
2022-07-26T04:33:52.126Z,21.40
2022-07-26T04:36:18.913Z,21.40
2022-07-26T04:38:45.628Z,21.40
2022-07-26T04:41:12.536Z,21.40
2022-07-26T04:43:39.231Z,21.40
2022-07-26T04:46:06.218Z,21.40
2022-07-26T04:48:33.086Z,21.40
2022-07-26T04:51:01.562Z,21.40
2022-07-26T04:53:28.298Z,21.40
2022-07-26T04:55:54.930Z,21.40
2022-07-26T04:58:21.639Z,21.40
2022-07-26T05:01:09.124Z,21.40
2022-07-26T05:03:35.024Z,21.40
2022-07-26T05:06:01.689Z,21.40
2022-07-26T05:08:28.337Z,21.40
2022-07-26T05:10:56.106Z,21.50
2022-07-26T05:13:30.700Z,21.50
2022-07-26T05:15:59.470Z,21.50
2022-07-26T05:18:26.487Z,21.50
2022-07-26T05:20:53.334Z,21.50
2022-07-26T05:23:20.755Z,21.50
2022-07-26T05:25:47.668Z,21.50
2022-07-26T05:28:16.739Z,21.50
2022-07-26T05:30:43.614Z,21.50
2022-07-26T05:33:16.456Z,21.50
2022-07-26T05:35:43.678Z,21.50
2022-07-26T05:38:10.358Z,21.50
2022-07-26T05:40:37.169Z,21.50
2022-07-26T05:43:07.478Z,21.50
2022-07-26T05:45:34.247Z,21.50
2022-07-26T05:48:02.213Z,21.50
2022-07-26T05:50:29.051Z,21.50
2022-07-26T05:52:55.909Z,21.50
2022-07-26T05:55:22.661Z,21.60
2022-07-26T05:57:49.809Z,21.60
2022-07-26T06:00:16.985Z,21.60
2022-07-26T06:02:46.566Z,21.60
2022-07-26T06:05:15.662Z,21.60
2022-07-26T06:07:42.317Z,21.60
2022-07-26T06:10:09.493Z,21.60
2022-07-26T06:12:36.285Z,21.70
2022-07-26T06:15:03.756Z,21.70
2022-07-26T06:17:41.900Z,21.80
2022-07-26T06:20:09.302Z,21.80
2022-07-26T06:22:35.962Z,21.90
2022-07-26T06:25:02.749Z,21.90
2022-07-26T06:27:32.098Z,21.90
2022-07-26T06:29:58.794Z,21.90
2022-07-26T06:32:25.467Z,22.00
2022-07-26T06:34:52.102Z,22.00
2022-07-26T06:37:18.762Z,22.00
2022-07-26T06:39:46.247Z,22.10
2022-07-26T06:42:12.956Z,22.10
2022-07-26T06:44:39.891Z,22.20
2022-07-26T06:47:06.557Z,22.20
2022-07-26T06:49:33.357Z,22.30
2022-07-26T06:52:00.164Z,22.30
2022-07-26T06:54:26.980Z,22.30
2022-07-26T06:56:53.695Z,22.40
2022-07-26T06:59:20.390Z,22.40
2022-07-26T07:01:55.694Z,22.40
2022-07-26T07:04:28.465Z,22.40
2022-07-26T07:06:57.472Z,22.40
2022-07-26T07:09:24.549Z,22.40
2022-07-26T07:11:53.720Z,22.40
2022-07-26T07:14:25.406Z,22.40
2022-07-26T07:16:52.145Z,22.40
2022-07-26T07:19:18.839Z,22.50
2022-07-26T07:21:45.547Z,22.40
2022-07-26T07:24:12.490Z,22.50
2022-07-26T07:26:39.269Z,22.50
2022-07-26T07:29:05.932Z,22.50
2022-07-26T07:31:49.153Z,22.50
2022-07-26T07:34:22.739Z,22.50
2022-07-26T07:36:52.042Z,22.60
2022-07-26T07:39:19.337Z,22.60
2022-07-26T07:41:47.426Z,22.70
2022-07-26T07:44:14.242Z,22.60
2022-07-26T07:46:41.154Z,22.60
2022-07-26T07:49:11.515Z,22.70
2022-07-26T07:51:41.414Z,22.80
2022-07-26T07:54:08.539Z,22.80
2022-07-26T07:56:35.270Z,22.90
2022-07-26T07:59:01.987Z,23.00
2022-07-26T08:01:39.433Z,23.00
2022-07-26T08:04:08.649Z,23.10
2022-07-26T08:06:36.055Z,23.30
2022-07-26T08:09:05.376Z,23.30
2022-07-26T08:11:33.740Z,23.40
2022-07-26T08:14:01.221Z,23.50
2022-07-26T08:16:28.085Z,23.60
2022-07-26T08:18:57.998Z,23.70
2022-07-26T08:21:35.450Z,23.70
2022-07-26T08:24:02.800Z,23.80
2022-07-26T08:26:29.621Z,23.80
2022-07-26T08:28:59.845Z,23.90
2022-07-26T08:31:28.556Z,23.90
2022-07-26T08:33:58.625Z,23.90
2022-07-26T08:36:31.942Z,24.00
2022-07-26T08:39:00.180Z,24.10
2022-07-26T08:41:27.590Z,24.20
2022-07-26T08:43:55.418Z,24.40
2022-07-26T08:46:25.828Z,24.40
2022-07-26T08:48:55.283Z,24.50
2022-07-26T08:51:26.327Z,24.70
2022-07-26T08:54:04.912Z,24.70
2022-07-26T08:56:37.460Z,24.70
2022-07-26T08:59:06.680Z,24.70
2022-07-26T09:01:33.956Z,24.70
2022-07-26T09:04:30.578Z,24.70
2022-07-26T09:07:11.183Z,24.60
2022-07-26T09:10:00.237Z,24.50
2022-07-26T09:12:29.018Z,24.40
2022-07-26T09:14:56.472Z,24.30
2022-07-26T09:17:24.671Z,24.30
2022-07-26T09:20:28.573Z,24.20
2022-07-26T09:23:04.042Z,24.20
2022-07-26T09:25:36.979Z,24.10
2022-07-26T09:28:05.122Z,24.20
2022-07-26T09:30:32.633Z,24.20
2022-07-26T09:33:00.990Z,24.20
2022-07-26T09:35:50.953Z,24.20
2022-07-26T09:38:16.310Z,24.20
2022-07-26T09:40:50.505Z,24.20
2022-07-26T09:43:23.777Z,24.30
2022-07-26T09:46:04.837Z,24.30
2022-07-26T09:48:52.293Z,24.40
2022-07-26T09:51:39.398Z,24.50
2022-07-26T09:54:06.915Z,24.60
2022-07-26T09:56:46.708Z,24.70
2022-07-26T09:59:15.693Z,24.80
2022-07-26T10:01:43.416Z,24.90
2022-07-26T10:04:11.382Z,25.00
2022-07-26T10:06:38.950Z,25.10
2022-07-26T10:09:06.900Z,25.30
2022-07-26T10:12:04.753Z,25.40
2022-07-26T10:14:46.461Z,25.60
2022-07-26T10:17:31.176Z,25.70
2022-07-26T10:20:04.633Z,25.80
2022-07-26T10:22:46.132Z,25.80
2022-07-26T10:25:19.396Z,25.80
2022-07-26T10:27:57.753Z,25.90
2022-07-26T10:30:33.567Z,25.90
2022-07-26T10:33:15.785Z,25.90
2022-07-26T10:35:43.590Z,26.00
2022-07-26T10:38:26.266Z,26.00
2022-07-26T10:41:04.350Z,26.10
2022-07-26T10:43:40.950Z,26.10
2022-07-26T10:46:18.009Z,26.10
2022-07-26T10:49:06.444Z,26.10
2022-07-26T10:51:38.735Z,26.00
2022-07-26T10:54:06.298Z,25.90
2022-07-26T10:56:34.068Z,25.80
2022-07-26T10:59:02.188Z,25.70
2022-07-26T11:01:40.796Z,25.60
2022-07-26T11:04:19.327Z,25.40
2022-07-26T11:06:46.137Z,25.30
2022-07-26T11:09:13.601Z,25.10
2022-07-26T11:11:47.203Z,25.00
2022-07-26T11:14:17.072Z,24.90
2022-07-26T11:16:46.785Z,24.80
2022-07-26T11:19:20.723Z,24.70
2022-07-26T11:21:54.641Z,24.70
2022-07-26T11:24:22.030Z,24.70
2022-07-26T11:26:53.980Z,24.70
2022-07-26T11:29:39.102Z,24.70
2022-07-26T11:32:22.276Z,24.70
2022-07-26T11:35:00.071Z,24.80
2022-07-26T11:37:27.337Z,24.90
2022-07-26T11:39:54.203Z,24.90
2022-07-26T11:42:22.102Z,25.00
2022-07-26T11:44:49.883Z,25.10
2022-07-26T11:47:19.823Z,25.30
2022-07-26T11:50:00.771Z,25.50
2022-07-26T11:52:34.327Z,25.70
2022-07-26T11:55:02.887Z,25.90
2022-07-26T11:57:31.495Z,26.10
2022-07-26T11:59:59.646Z,26.30
2022-07-26T12:02:27.834Z,26.40
2022-07-26T12:05:20.012Z,26.40
2022-07-26T12:07:57.667Z,26.50
2022-07-26T12:10:25.094Z,26.50
2022-07-26T12:13:07.259Z,26.50
2022-07-26T12:15:53.611Z,26.50
2022-07-26T12:18:30.069Z,26.50
2022-07-26T12:21:04.452Z,26.60
2022-07-26T12:23:48.960Z,26.70
2022-07-26T12:26:19.983Z,26.70
2022-07-26T12:28:46.688Z,26.70
2022-07-26T12:31:28.067Z,26.50
2022-07-26T12:33:55.661Z,26.50
2022-07-26T12:36:27.922Z,26.30
2022-07-26T12:38:59.970Z,26.20
2022-07-26T12:41:38.890Z,26.10
2022-07-26T12:44:06.961Z,26.00
2022-07-26T12:46:35.240Z,26.00
2022-07-26T12:49:02.619Z,26.10
2022-07-26T12:51:29.546Z,26.20
2022-07-26T12:53:56.340Z,26.30
2022-07-26T12:56:23.057Z,26.50
2022-07-26T12:58:49.790Z,26.70
2022-07-26T13:01:16.688Z,26.80
2022-07-26T13:03:44.194Z,26.90
2022-07-26T13:06:11.058Z,27.00
2022-07-26T13:08:37.896Z,27.10
2022-07-26T13:11:06.831Z,27.20
2022-07-26T13:13:33.617Z,27.30
2022-07-26T13:16:00.253Z,27.30
2022-07-26T13:18:26.979Z,27.40
2022-07-26T13:20:53.657Z,27.40
2022-07-26T13:23:26.939Z,27.40
2022-07-26T13:25:53.786Z,27.40
2022-07-26T13:28:21.282Z,27.40
2022-07-26T13:30:48.045Z,27.40
2022-07-26T13:33:16.524Z,27.40
2022-07-26T13:35:43.385Z,27.40
2022-07-26T13:38:10.543Z,27.30
2022-07-26T13:40:37.298Z,27.30
2022-07-26T13:43:04.813Z,27.50
2022-07-26T13:45:31.640Z,27.80
2022-07-26T13:47:59.508Z,28.30
2022-07-26T13:50:27.964Z,28.70
2022-07-26T13:52:56.122Z,29.00
2022-07-26T13:55:22.924Z,29.10
2022-07-26T13:57:57.247Z,29.20
2022-07-26T14:00:29.141Z,29.20
2022-07-26T14:03:00.766Z,29.20
2022-07-26T14:05:28.270Z,29.00
2022-07-26T14:07:55.391Z,28.80
2022-07-26T14:10:23.251Z,28.50
2022-07-26T14:12:50.492Z,28.40
2022-07-26T14:15:22.127Z,28.20
2022-07-26T14:17:51.151Z,28.10
2022-07-26T14:20:18.167Z,28.20
2022-07-26T14:22:45.409Z,28.40
2022-07-26T14:25:14.983Z,28.80
2022-07-26T14:27:41.671Z,29.40
2022-07-26T14:30:08.826Z,30.10
2022-07-26T14:32:35.593Z,30.90
2022-07-26T14:35:02.295Z,31.70
2022-07-26T14:37:43.251Z,32.40
2022-07-26T14:40:15.749Z,32.90
2022-07-26T14:42:42.615Z,33.30
2022-07-26T14:45:09.885Z,33.30
2022-07-26T14:47:37.051Z,33.20
2022-07-26T14:50:07.311Z,33.10
2022-07-26T14:52:37.441Z,32.90
2022-07-26T14:55:05.344Z,32.70
2022-07-26T14:57:32.006Z,32.30
2022-07-26T14:59:59.196Z,31.90
2022-07-26T15:02:26.232Z,31.50
2022-07-26T15:04:53.018Z,31.10
2022-07-26T15:07:19.801Z,30.70
2022-07-26T15:09:46.691Z,30.40
2022-07-26T15:12:13.478Z,30.10
2022-07-26T15:14:41.958Z,29.70
2022-07-26T15:17:08.598Z,29.40
2022-07-26T15:19:37.186Z,29.10
2022-07-26T15:22:03.913Z,28.90
2022-07-26T15:24:30.702Z,28.70
2022-07-26T15:26:57.414Z,28.60
2022-07-26T15:29:24.201Z,28.70
2022-07-26T15:31:51.098Z,28.80
2022-07-26T15:34:17.883Z,29.10
2022-07-26T15:36:44.545Z,29.60
2022-07-26T15:39:18.556Z,29.90
2022-07-26T15:41:47.434Z,30.20
2022-07-26T15:44:17.165Z,30.20
2022-07-26T15:46:45.745Z,30.10
2022-07-26T15:49:15.134Z,30.00
2022-07-26T15:51:43.186Z,29.80
2022-07-26T15:54:12.284Z,29.70
2022-07-26T15:56:39.453Z,29.60
2022-07-26T15:59:09.368Z,29.40
2022-07-26T16:01:36.776Z,29.20
2022-07-26T16:04:05.062Z,29.00
2022-07-26T16:06:35.368Z,28.80
2022-07-26T16:09:19.296Z,28.60
2022-07-26T16:11:47.796Z,28.50
2022-07-26T16:14:15.286Z,28.40
2022-07-26T16:16:42.129Z,28.30
2022-07-26T16:19:09.823Z,28.30
2022-07-26T16:21:37.492Z,28.30
2022-07-26T16:24:07.094Z,28.20
2022-07-26T16:26:34.385Z,28.20
2022-07-26T16:29:01.202Z,28.20
2022-07-26T16:31:28.047Z,28.30
2022-07-26T16:33:54.782Z,28.50
2022-07-26T16:36:21.530Z,28.40
2022-07-26T16:38:48.250Z,28.30
2022-07-26T16:41:14.911Z,28.10
2022-07-26T16:43:41.710Z,27.90
2022-07-26T16:46:08.708Z,27.70
2022-07-26T16:48:37.612Z,27.50
2022-07-26T16:51:04.801Z,27.30
2022-07-26T16:53:31.600Z,27.10
2022-07-26T16:55:58.358Z,26.90
2022-07-26T16:58:25.122Z,26.80
2022-07-26T17:00:51.924Z,26.60
2022-07-26T17:03:19.274Z,26.50
2022-07-26T17:05:46.703Z,26.40
2022-07-26T17:08:13.441Z,26.20
2022-07-26T17:10:40.130Z,26.10
2022-07-26T17:13:06.914Z,26.00
2022-07-26T17:15:33.645Z,25.80
2022-07-26T17:18:00.420Z,25.70
2022-07-26T17:20:27.656Z,25.50
2022-07-26T17:22:54.409Z,25.30
2022-07-26T17:25:21.188Z,25.10
2022-07-26T17:27:47.993Z,25.00
2022-07-26T17:30:14.977Z,24.90
2022-07-26T17:32:41.859Z,24.90
2022-07-26T17:35:10.881Z,24.70
2022-07-26T17:37:37.637Z,24.60
2022-07-26T17:40:08.079Z,24.50
2022-07-26T17:42:35.866Z,24.50
2022-07-26T17:45:03.466Z,24.40
2022-07-26T17:47:30.813Z,24.40
2022-07-26T17:52:49.081Z,24.20
2022-07-26T17:55:16.130Z,24.20
2022-07-26T17:57:42.913Z,24.00
2022-07-26T18:00:10.363Z,24.00
2022-07-26T18:02:37.534Z,23.90
2022-07-26T18:05:04.582Z,23.90
2022-07-26T18:07:31.414Z,23.80
2022-07-26T18:09:59.284Z,23.70
2022-07-26T18:12:25.963Z,23.70
2022-07-26T18:14:52.609Z,23.60
2022-07-26T18:17:19.318Z,23.60
2022-07-26T18:19:45.978Z,23.50
2022-07-26T18:22:12.664Z,23.50
2022-07-26T18:24:39.411Z,23.50
2022-07-26T18:27:06.420Z,23.40
2022-07-26T18:29:33.330Z,23.50
2022-07-26T18:32:01.299Z,23.40
2022-07-26T18:34:28.210Z,23.40
2022-07-26T18:36:54.992Z,23.40
2022-07-26T18:39:21.824Z,23.40
2022-07-26T18:41:48.558Z,23.40
2022-07-26T18:44:15.225Z,23.40
2022-07-26T18:46:44.185Z,23.40
2022-07-26T18:49:15.798Z,23.40
2022-07-26T18:51:48.870Z,23.30
2022-07-26T18:54:16.487Z,23.40
2022-07-26T18:56:43.647Z,23.30
2022-07-26T18:59:10.620Z,23.30
2022-07-26T19:01:37.711Z,23.30
2022-07-26T19:04:06.973Z,23.30
2022-07-26T19:06:35.302Z,23.30
2022-07-26T19:09:02.059Z,23.30
2022-07-26T19:11:30.103Z,23.30
2022-07-26T19:13:57.094Z,23.30
2022-07-26T19:16:26.689Z,23.30
2022-07-26T19:18:57.359Z,23.30
2022-07-26T19:21:24.425Z,23.20
2022-07-26T19:23:51.241Z,23.20
2022-07-26T19:26:17.999Z,23.20
2022-07-26T19:28:44.730Z,23.10
2022-07-26T19:31:11.707Z,23.10
2022-07-26T19:33:38.482Z,23.00
2022-07-26T19:36:05.490Z,23.00
2022-07-26T19:38:32.999Z,22.90
2022-07-26T19:41:00.846Z,22.90
2022-07-26T19:43:31.275Z,22.80
2022-07-26T19:46:05.141Z,22.70
2022-07-26T19:48:32.027Z,22.70
2022-07-26T19:50:58.837Z,22.60
2022-07-26T19:53:25.606Z,22.60
2022-07-26T19:55:52.968Z,22.60
2022-07-26T19:58:22.047Z,22.50
2022-07-26T20:00:56.507Z,22.50
2022-07-26T20:03:23.153Z,22.50
2022-07-26T20:05:50.289Z,22.40
2022-07-26T20:08:16.961Z,22.40
2022-07-26T20:10:43.659Z,22.30
2022-07-26T20:13:15.235Z,22.30
2022-07-26T20:15:42.434Z,22.30
2022-07-26T20:18:11.425Z,22.30
2022-07-26T20:20:38.226Z,22.30
2022-07-26T20:23:07.213Z,22.20
2022-07-26T20:25:34.376Z,22.10
2022-07-26T20:28:03.851Z,22.20
2022-07-26T20:30:30.737Z,22.10
2022-07-26T20:33:00.446Z,22.10
2022-07-26T20:35:32.417Z,22.10
2022-07-26T20:38:02.354Z,22.00
2022-07-26T20:40:29.971Z,22.00
2022-07-26T20:42:57.078Z,21.90
2022-07-26T20:45:24.183Z,21.90
2022-07-26T20:47:57.751Z,21.80
2022-07-26T20:50:24.537Z,21.70
2022-07-26T20:52:51.330Z,21.70
2022-07-26T20:55:18.840Z,21.60
2022-07-26T20:57:48.542Z,21.60
2022-07-26T21:00:16.411Z,21.60
2022-07-26T21:02:45.668Z,21.60
2022-07-26T21:05:17.693Z,21.50
2022-07-26T21:07:55.999Z,21.50
2022-07-26T21:10:29.785Z,21.40
2022-07-26T21:13:04.530Z,21.40
2022-07-26T21:15:37.317Z,21.40
2022-07-26T21:18:06.667Z,21.30
2022-07-26T21:20:36.364Z,21.30
2022-07-26T21:23:15.832Z,21.30
2022-07-26T21:25:48.916Z,21.30
2022-07-26T21:28:29.505Z,21.30
2022-07-26T21:30:58.995Z,21.30
2022-07-26T21:33:28.172Z,21.30
2022-07-26T21:35:57.335Z,21.30
2022-07-26T21:38:27.738Z,21.30
2022-07-26T21:40:54.553Z,21.30
2022-07-26T21:43:21.321Z,21.20
2022-07-26T21:45:50.600Z,21.20
2022-07-26T21:48:17.778Z,21.20
2022-07-26T21:50:47.155Z,21.20
2022-07-26T21:53:13.887Z,21.20
2022-07-26T21:55:40.930Z,21.20
2022-07-26T21:58:15.732Z,21.20
2022-07-26T22:00:42.539Z,21.20
2022-07-26T22:03:10.098Z,21.20
2022-07-26T22:05:39.769Z,21.20
2022-07-26T22:08:14.725Z,21.20
2022-07-26T22:10:47.244Z,21.20
2022-07-26T22:13:16.735Z,21.10
2022-07-26T22:15:46.735Z,21.10
2022-07-26T22:18:13.859Z,21.00
2022-07-26T22:20:44.425Z,21.00
2022-07-26T22:23:13.945Z,21.00
2022-07-26T22:25:41.062Z,21.00
2022-07-26T22:28:10.525Z,21.00
2022-07-26T22:30:40.178Z,20.90
2022-07-26T22:33:09.056Z,20.90
2022-07-26T22:35:36.501Z,20.90
2022-07-26T22:38:06.626Z,20.80
2022-07-26T22:40:33.676Z,20.80
2022-07-26T22:43:00.691Z,20.70
2022-07-26T22:45:31.762Z,20.70
2022-07-26T22:48:05.070Z,20.70
2022-07-26T22:50:37.121Z,20.60
2022-07-26T22:53:07.663Z,20.60
2022-07-26T22:55:36.866Z,20.60
2022-07-26T22:58:03.683Z,20.50
2022-07-26T23:00:30.753Z,20.50
2022-07-26T23:02:57.440Z,20.40
2022-07-26T23:05:27.611Z,20.40
2022-07-26T23:08:44.249Z,20.40
2022-07-26T23:11:00.529Z,20.50
2022-07-26T23:13:29.559Z,20.40
2022-07-26T23:16:00.554Z,20.40
2022-07-26T23:18:29.014Z,20.30
2022-07-26T23:20:55.718Z,20.30
2022-07-26T23:23:29.242Z,20.30
2022-07-26T23:25:59.841Z,20.30
2022-07-26T23:28:36.126Z,20.30
2022-07-26T23:31:06.441Z,20.30
2022-07-26T23:33:52.851Z,20.40
2022-07-26T23:36:23.610Z,20.50
2022-07-26T23:38:51.709Z,20.40
2022-07-26T23:41:26.671Z,20.40
2022-07-26T23:43:54.544Z,20.40
2022-07-26T23:46:24.286Z,20.30
2022-07-26T23:48:52.545Z,20.30
2022-07-26T23:51:25.465Z,20.30
2022-07-26T23:53:54.641Z,20.30
2022-07-26T23:56:21.845Z,20.30
2022-07-26T23:58:51.479Z,20.30
